Grand Junction Regional Airport
KGJT : now visible

Airfield :











YOU CAN JOIN US ON...

 
LOGIN :

Register | Disclaimer

   EN    FR    IT 

 









Legend :    VFR   Marginal VFR   IFR   Intensive IFR   Very Intensive IFR
Visi :
Ceiling :
>= 8 km
>= 3000ft
5 to 8 km
1000 to 3000 ft
1500m to 5 km
500 to 1000 ft
800 to 1500m
200 to 500 ft
< 800m
< 200 ft
Symbols :   Thunderstorms  Fog  Heavy snow  Heavy precipitations  Wind > 20 kt






- Airport Elevation : 4858 ft
- IATA code : GJT


KGJT - Grand Junction Regional

CURRENT METAR :
  • 250653Z AUTO 33009KT 8SM OVC007 M01/M03 A3015 RMK AO2 SLP220 T10061028 400221006

EXPIRED METARs :
  • 250623Z AUTO 33009KT 8SM OVC009 M01/M02 A3014 RMK AO2 T10061022
  • 250553Z AUTO 33006KT 8SM OVC011 M01/M02 A3014 RMK AO2 SLP215 T10061022 10017 21006 50006
  • 250535Z AUTO 35006KT 8SM BKN010 OVC060 M01/M02 A3013 RMK AO2 T10061022
  • 250453Z 33005KT 9SM OVC060 M01/M02 A3014 RMK AO2 SLP218 T10061022

TAF KGJT
Valid from the 25 at 06:00 until the 26 at 06:00 UTC


250545Z 2506/2606 35006KT P6SM OVC010
FM250800 VRB02KT 5SM BR OVC005
FM251800 VRB02KT P6SM OVC015
FM252000 16003KT P6SM BKN030 BKN250



MET'MAP, your aeronautical weather chart ! - Copyright ORBIFLY December 2007 - Disclaimer

ORBIFLY MET'MAP TEAM :

Programming & Development : Alexandra Zaïnal
Concept & original design : Baudouin d'Aumeries
Assistance for programming : Marc-Olivier Méhu
Technical & hardware support : Manuel Goepfert

Contact : metmap@orbifly.com




SOURCES & CREDITS :

   NOAA       Earth
Advisory